createdAt,value
2022-10-12T00:00:02.967Z,8.33
2022-10-12T00:02:41.077Z,10.23
2022-10-12T00:05:09.359Z,7.50
2022-10-12T00:07:37.035Z,7.67
2022-10-12T00:10:05.259Z,8.77
2022-10-12T00:12:33.973Z,6.80
2022-10-12T00:15:01.247Z,4.93
2022-10-12T00:17:28.585Z,6.63
2022-10-12T00:19:55.862Z,11.93
2022-10-12T00:22:23.109Z,5.27
2022-10-12T00:24:52.245Z,10.20
2022-10-12T00:27:19.571Z,11.63
2022-10-12T00:29:47.178Z,6.27
2022-10-12T00:32:15.194Z,8.77
2022-10-12T00:34:42.487Z,10.03
2022-10-12T00:37:09.830Z,5.73
2022-10-12T00:39:37.338Z,8.23
2022-10-12T00:42:04.643Z,8.13
2022-10-12T00:44:39.589Z,10.63
2022-10-12T00:47:32.761Z,6.80
2022-10-12T00:50:08.894Z,8.20
2022-10-12T00:53:02.519Z,8.40
2022-10-12T00:55:36.797Z,6.57
2022-10-12T00:58:06.823Z,5.80
2022-10-12T01:00:36.740Z,7.23
2022-10-12T01:03:06.191Z,6.10
2022-10-12T01:05:33.978Z,5.90
2022-10-12T01:08:02.729Z,6.17
2022-10-12T01:10:29.968Z,6.97
2022-10-12T01:12:57.690Z,10.13
2022-10-12T01:15:31.431Z,8.87
2022-10-12T01:18:34.238Z,5.37
2022-10-12T01:21:04.423Z,8.67
2022-10-12T01:23:49.150Z,6.03
2022-10-12T01:26:23.308Z,6.80
2022-10-12T01:29:05.858Z,5.00
2022-10-12T01:31:49.328Z,7.00
2022-10-12T01:34:51.788Z,6.17
2022-10-12T01:37:27.962Z,7.10
2022-10-12T01:39:57.181Z,5.60
2022-10-12T01:42:29.773Z,5.73
2022-10-12T01:45:13.813Z,9.17
2022-10-12T01:47:45.601Z,8.23
2022-10-12T01:50:14.938Z,9.00
2022-10-12T01:53:00.238Z,5.10
2022-10-12T01:55:36.846Z,4.73
2022-10-12T01:58:42.349Z,7.50
2022-10-12T02:01:26.545Z,8.00
2022-10-12T02:04:09.271Z,8.27
2022-10-12T02:06:49.482Z,7.70
2022-10-12T02:09:27.497Z,5.20
2022-10-12T02:11:59.858Z,7.37
2022-10-12T02:14:32.397Z,9.97
2022-10-12T02:17:02.232Z,8.60
2022-10-12T02:19:35.213Z,10.10
2022-10-12T02:22:05.722Z,7.53
2022-10-12T02:24:39.690Z,11.70
2022-10-12T02:27:09.762Z,10.83
2022-10-12T02:29:39.797Z,6.43
2022-10-12T02:32:09.878Z,5.73
2022-10-12T02:35:06.750Z,5.93
2022-10-12T02:37:55.385Z,5.90
2022-10-12T02:40:34.534Z,7.07
2022-10-12T02:43:11.168Z,6.30
2022-10-12T02:45:43.711Z,9.40
2022-10-12T02:48:15.026Z,9.67
2022-10-12T02:50:43.514Z,8.17
2022-10-12T02:53:12.808Z,10.00
2022-10-12T02:55:51.299Z,6.17
2022-10-12T02:58:19.106Z,6.10
2022-10-12T03:00:46.790Z,6.73
2022-10-12T03:03:14.089Z,6.27
2022-10-12T03:05:41.337Z,9.20
2022-10-12T03:08:08.595Z,4.73
2022-10-12T03:10:36.029Z,5.23
2022-10-12T03:13:03.423Z,5.97
2022-10-12T03:15:31.320Z,5.40
2022-10-12T03:17:59.581Z,7.40
2022-10-12T03:20:26.922Z,11.03
2022-10-12T03:22:54.613Z,5.03
2022-10-12T03:25:21.883Z,8.07
2022-10-12T03:27:49.134Z,5.90
2022-10-12T03:30:16.932Z,9.70
2022-10-12T03:32:44.594Z,8.30
2022-10-12T03:35:11.950Z,10.53
2022-10-12T03:37:39.580Z,6.60
2022-10-12T03:40:08.074Z,14.43
2022-10-12T03:42:35.406Z,5.73
2022-10-12T03:45:02.882Z,6.60
2022-10-12T03:47:30.169Z,5.07
2022-10-12T03:49:57.557Z,11.57
2022-10-12T03:52:24.990Z,5.57
2022-10-12T03:54:52.394Z,6.83
2022-10-12T03:57:20.288Z,7.10
2022-10-12T03:59:47.656Z,6.57
2022-10-12T04:02:17.099Z,8.03
2022-10-12T04:04:44.783Z,6.27
2022-10-12T04:07:12.275Z,6.13
2022-10-12T04:09:39.812Z,7.17
2022-10-12T04:12:07.242Z,6.87
2022-10-12T04:14:34.648Z,12.10
2022-10-12T04:17:27.951Z,5.63
2022-10-12T04:19:55.282Z,8.73
2022-10-12T04:22:24.636Z,9.67
2022-10-12T04:24:52.168Z,6.10
2022-10-12T04:27:19.699Z,7.70
2022-10-12T04:29:47.205Z,7.97
2022-10-12T04:32:14.558Z,7.67
2022-10-12T04:34:41.856Z,7.93
2022-10-12T04:37:09.166Z,5.57
2022-10-12T04:39:36.628Z,8.17
2022-10-12T04:42:04.257Z,6.63
2022-10-12T04:44:32.503Z,8.77
2022-10-12T04:47:01.367Z,7.27
2022-10-12T04:49:28.914Z,5.17
2022-10-12T04:51:56.372Z,6.93
2022-10-12T04:54:24.007Z,7.20
2022-10-12T04:56:51.542Z,7.07
2022-10-12T04:59:19.183Z,9.20
2022-10-12T05:01:46.829Z,14.07
2022-10-12T05:04:14.438Z,8.67
2022-10-12T05:06:42.268Z,8.40
2022-10-12T05:09:13.201Z,6.80
2022-10-12T05:11:43.450Z,12.70
2022-10-12T05:14:10.777Z,8.17
2022-10-12T05:16:38.490Z,6.50
2022-10-12T05:19:05.806Z,8.23
2022-10-12T05:21:34.081Z,17.93
2022-10-12T05:24:03.037Z,5.63
2022-10-12T05:26:30.366Z,5.30
2022-10-12T05:28:57.817Z,6.60
2022-10-12T05:31:25.402Z,5.90
2022-10-12T05:33:53.106Z,6.67
2022-10-12T05:36:20.479Z,6.70
2022-10-12T05:38:48.845Z,5.60
2022-10-12T05:41:16.238Z,7.60
2022-10-12T05:43:43.492Z,5.40
2022-10-12T05:46:14.252Z,8.23
2022-10-12T05:48:41.894Z,7.63
2022-10-12T05:51:09.149Z,8.53
2022-10-12T05:53:36.589Z,8.83
2022-10-12T05:56:04.156Z,9.10
2022-10-12T05:58:31.543Z,9.00
2022-10-12T06:01:10.567Z,8.90
2022-10-12T06:03:38.209Z,9.47
2022-10-12T06:06:06.872Z,6.63
2022-10-12T06:08:34.781Z,11.60
2022-10-12T06:11:02.438Z,11.27
2022-10-12T06:13:40.657Z,8.13
2022-10-12T06:16:08.217Z,7.53
2022-10-12T06:18:36.054Z,6.53
2022-10-12T06:27:23.975Z,12.77
2022-10-12T06:30:01.449Z,11.70
2022-10-12T06:32:38.018Z,7.50
2022-10-12T07:00:28.828Z,6.30
2022-10-12T07:03:01.942Z,9.47
2022-10-12T07:05:30.589Z,9.07
2022-10-12T07:08:01.652Z,7.00
2022-10-12T07:11:07.625Z,11.43
2022-10-12T07:17:14.623Z,9.97
2022-10-12T07:19:42.007Z,6.87
2022-10-12T07:22:09.681Z,5.97
2022-10-12T07:24:37.250Z,7.43
2022-10-12T07:27:10.391Z,9.00
2022-10-12T07:29:39.421Z,11.13
2022-10-12T07:35:17.606Z,7.47
2022-10-12T07:37:49.447Z,7.43
2022-10-12T07:40:27.001Z,8.60
2022-10-12T07:43:15.314Z,7.20
2022-10-12T07:46:08.108Z,7.87
2022-10-12T07:51:51.775Z,9.53
2022-10-12T07:54:29.016Z,8.30
2022-10-12T07:56:57.326Z,19.97
2022-10-12T07:59:25.222Z,8.80
2022-10-12T08:01:52.591Z,10.77
2022-10-12T08:04:20.212Z,8.87
2022-10-12T08:06:49.571Z,6.03
2022-10-12T08:09:17.898Z,7.70
2022-10-12T08:12:40.757Z,8.83
2022-10-12T08:15:14.752Z,12.43
2022-10-12T08:17:45.068Z,8.47
2022-10-12T08:20:14.306Z,5.63
2022-10-12T08:22:42.324Z,6.63
2022-10-12T08:25:10.384Z,8.07
2022-10-12T08:27:45.925Z,7.00
2022-10-12T08:30:14.817Z,6.03
2022-10-12T08:39:02.685Z,7.67
2022-10-12T08:41:52.247Z,6.77
2022-10-12T08:44:31.515Z,4.97
2022-10-12T08:47:27.197Z,6.83
2022-10-12T08:53:40.448Z,7.47
2022-10-12T08:56:10.798Z,5.10
2022-10-12T08:58:39.276Z,8.53
2022-10-12T09:01:19.579Z,7.23
2022-10-12T09:04:11.970Z,5.00
2022-10-12T09:07:00.874Z,8.77
2022-10-12T09:10:00.110Z,8.30
2022-10-12T09:35:37.495Z,4.90
2022-10-12T09:38:06.647Z,5.97
2022-10-12T09:41:00.628Z,8.87
2022-10-12T09:43:30.880Z,8.67
2022-10-12T09:46:07.255Z,5.83
2022-10-12T09:52:35.512Z,6.80
2022-10-12T09:55:15.251Z,6.57
2022-10-12T09:57:51.843Z,7.80
2022-10-12T10:00:34.681Z,6.10
2022-10-12T10:03:59.353Z,7.40
2022-10-12T10:06:27.509Z,7.93
2022-10-12T10:09:33.998Z,7.37
2022-10-12T10:12:24.871Z,5.57
2022-10-12T10:14:58.561Z,7.67
2022-10-12T10:17:33.906Z,8.90
2022-10-12T10:21:18.575Z,8.27
2022-10-12T10:23:59.227Z,7.03
2022-10-12T10:26:28.813Z,9.50
2022-10-12T10:29:15.548Z,7.33
2022-10-12T10:31:45.946Z,8.10
2022-10-12T10:34:22.005Z,6.17
2022-10-12T10:36:56.032Z,8.23
2022-10-12T10:39:32.152Z,10.63
2022-10-12T10:42:32.056Z,11.83
2022-10-12T10:45:21.507Z,9.23
2022-10-12T10:48:23.004Z,9.90
2022-10-12T10:51:46.595Z,12.60
2022-10-12T10:54:24.753Z,10.13
2022-10-12T10:57:20.707Z,7.60
2022-10-12T10:59:48.460Z,7.00
2022-10-12T11:07:41.357Z,10.20
2022-10-12T11:10:43.171Z,8.13
2022-10-12T11:13:29.330Z,8.40
2022-10-12T11:16:27.663Z,9.40
2022-10-12T11:18:58.961Z,12.63
2022-10-12T11:21:57.406Z,10.23
2022-10-12T11:25:36.359Z,10.97
2022-10-12T11:28:06.507Z,13.50
2022-10-12T11:30:45.341Z,9.30
2022-10-12T11:33:44.579Z,9.87
2022-10-12T11:36:16.833Z,11.27
2022-10-12T11:39:07.140Z,14.40
2022-10-12T11:42:09.608Z,8.90
2022-10-12T11:44:48.065Z,8.77
2022-10-12T11:47:49.355Z,8.40
2022-10-12T12:55:18.426Z,8.17
2022-10-12T12:58:04.736Z,8.37
2022-10-12T13:00:58.081Z,9.27
2022-10-12T13:03:49.002Z,7.40
2022-10-12T13:06:56.816Z,7.93
2022-10-12T13:10:01.977Z,8.20
2022-10-12T13:12:39.160Z,10.10
2022-10-12T13:15:07.955Z,8.17
2022-10-12T13:17:57.473Z,11.93
2022-10-12T13:20:31.983Z,8.47
2022-10-12T13:23:05.161Z,9.00
2022-10-12T13:25:51.524Z,9.07
2022-10-12T13:28:32.753Z,8.83
2022-10-12T13:31:05.118Z,9.97
2022-10-12T13:33:57.135Z,9.07
2022-10-12T13:36:28.190Z,10.73
2022-10-12T13:38:58.122Z,9.03
2022-10-12T13:41:30.316Z,10.87
2022-10-12T13:44:07.097Z,8.43
2022-10-12T13:46:46.272Z,9.90
2022-10-12T13:49:20.536Z,9.73
2022-10-12T13:51:51.378Z,11.77
2022-10-12T13:54:23.675Z,8.60
2022-10-12T13:56:58.956Z,9.90
2022-10-12T13:59:30.845Z,8.37
2022-10-12T14:02:01.537Z,8.93
2022-10-12T14:04:34.315Z,9.67
2022-10-12T14:07:11.606Z,9.83
2022-10-12T14:09:45.270Z,7.27
2022-10-12T14:12:13.915Z,8.60
2022-10-12T14:14:44.513Z,8.73
2022-10-12T14:17:19.571Z,8.50
2022-10-12T14:19:55.095Z,8.13
2022-10-12T14:22:32.558Z,8.07
2022-10-12T14:25:28.278Z,13.97
2022-10-12T14:28:06.815Z,8.80
2022-10-12T14:30:50.354Z,9.60
2022-10-12T14:33:18.100Z,11.50
2022-10-12T14:35:48.221Z,14.40
2022-10-12T14:38:39.595Z,11.70
2022-10-12T14:41:43.533Z,8.67
2022-10-12T14:44:13.393Z,10.23
2022-10-12T14:46:55.489Z,8.53
2022-10-12T14:49:39.335Z,12.60
2022-10-12T14:52:18.898Z,12.40
2022-10-12T14:54:53.579Z,10.10
2022-10-12T14:57:22.942Z,9.77
2022-10-12T14:59:50.249Z,14.10
2022-10-12T15:02:22.200Z,9.60
2022-10-12T15:04:49.963Z,11.47
2022-10-12T15:07:23.238Z,20.90
2022-10-12T15:09:51.009Z,8.07
2022-10-12T15:12:21.082Z,11.43
2022-10-12T15:14:49.986Z,9.23
2022-10-12T15:17:18.973Z,8.47
2022-10-12T15:19:48.915Z,8.10
2022-10-12T15:22:26.373Z,16.57
2022-10-12T15:24:55.065Z,9.80
2022-10-12T15:27:22.383Z,7.60
2022-10-12T15:29:49.828Z,8.80
2022-10-12T15:32:18.615Z,11.57
2022-10-12T15:34:46.228Z,8.13
2022-10-12T15:37:14.023Z,8.93
2022-10-12T15:39:42.626Z,7.67
2022-10-12T15:42:12.219Z,9.00
2022-10-12T15:44:41.475Z,13.93
2022-10-12T15:47:10.994Z,9.07
2022-10-12T15:49:38.724Z,11.00
2022-10-12T15:52:10.114Z,7.53
2022-10-12T15:54:37.670Z,11.37
2022-10-12T15:57:06.946Z,9.23
2022-10-12T15:59:34.705Z,13.10
2022-10-12T16:02:02.075Z,10.20
2022-10-12T16:04:29.573Z,8.90
2022-10-12T16:07:01.122Z,11.43
2022-10-12T16:09:28.532Z,11.50
2022-10-12T16:11:56.185Z,9.03
2022-10-12T16:14:26.707Z,10.33
2022-10-12T16:16:54.125Z,10.30
2022-10-12T16:19:21.532Z,9.00
2022-10-12T16:21:49.341Z,9.53
2022-10-12T16:24:16.651Z,14.33
2022-10-12T16:26:45.116Z,12.57
2022-10-12T16:29:12.510Z,9.10
2022-10-12T16:31:39.827Z,8.97
2022-10-12T16:34:07.153Z,8.27
2022-10-12T16:36:34.822Z,12.63
2022-10-12T16:39:02.499Z,9.43
2022-10-12T16:41:33.249Z,9.97
2022-10-12T16:44:01.794Z,8.50
2022-10-12T16:46:31.079Z,8.77
2022-10-12T16:48:58.392Z,9.80
2022-10-12T16:51:25.721Z,8.30
2022-10-12T16:53:53.374Z,8.97
2022-10-12T16:56:20.702Z,12.47
2022-10-12T16:58:50.103Z,11.13
2022-10-12T17:01:17.553Z,10.60
2022-10-12T17:03:45.001Z,12.63
2022-10-12T17:06:12.322Z,11.47
2022-10-12T17:08:40.018Z,16.63
2022-10-12T17:11:09.685Z,9.57
2022-10-12T17:13:38.214Z,9.00
2022-10-12T17:16:28.035Z,9.10
2022-10-12T17:18:59.267Z,10.30
2022-10-12T17:21:28.219Z,9.03
2022-10-12T17:24:05.940Z,8.97
2022-10-12T17:26:37.249Z,9.63
2022-10-12T17:29:08.017Z,17.00
2022-10-12T17:31:35.530Z,14.27
2022-10-12T17:34:02.859Z,13.83
2022-10-12T17:36:30.149Z,17.60
2022-10-12T17:38:58.714Z,13.97
2022-10-12T17:41:27.890Z,17.13
2022-10-12T17:43:55.673Z,16.43
2022-10-12T17:46:23.385Z,14.13
2022-10-12T17:48:51.041Z,14.40
2022-10-12T17:51:18.486Z,15.73
2022-10-12T17:53:46.022Z,16.63
2022-10-12T17:56:14.714Z,14.53
2022-10-12T17:58:42.903Z,18.80
2022-10-12T18:01:13.653Z,14.27
2022-10-12T18:03:42.725Z,10.57
2022-10-12T18:06:15.798Z,13.77
2022-10-12T18:08:43.772Z,11.07
2022-10-12T18:11:11.779Z,11.97
2022-10-12T18:13:39.225Z,15.10
2022-10-12T18:16:11.209Z,10.53
2022-10-12T18:18:39.246Z,11.97
2022-10-12T18:21:08.312Z,11.13
2022-10-12T18:23:35.694Z,15.87
2022-10-12T18:26:08.840Z,12.47
2022-10-12T18:28:36.854Z,13.10
2022-10-12T18:31:05.115Z,13.70
2022-10-12T18:33:33.555Z,15.37
2022-10-12T18:36:06.425Z,16.23
2022-10-12T18:38:34.253Z,15.63
2022-10-12T18:41:11.445Z,16.27
2022-10-12T18:43:39.214Z,18.33
2022-10-12T18:46:11.616Z,16.20
2022-10-12T18:48:39.204Z,19.50
2022-10-12T18:51:09.403Z,14.00
2022-10-12T18:53:36.935Z,22.50
2022-10-12T18:56:06.478Z,19.87
2022-10-12T18:58:34.302Z,19.57
2022-10-12T19:01:01.806Z,18.10
2022-10-12T19:03:29.507Z,14.10
2022-10-12T19:06:08.544Z,14.20
2022-10-12T19:08:36.730Z,13.80
2022-10-12T19:11:06.619Z,13.73
2022-10-12T19:13:35.789Z,14.93
2022-10-12T19:16:09.523Z,13.87
2022-10-12T19:18:37.810Z,17.03
2022-10-12T19:21:07.750Z,14.97
2022-10-12T19:23:35.912Z,13.77
2022-10-12T19:26:09.125Z,14.67
2022-10-12T19:28:36.803Z,15.90
2022-10-12T19:31:22.261Z,16.13
2022-10-12T19:33:49.774Z,12.40
2022-10-12T19:36:18.488Z,12.90
2022-10-12T19:38:46.258Z,14.97
2022-10-12T19:41:14.215Z,12.57
2022-10-12T19:43:46.519Z,12.63
2022-10-12T19:46:14.279Z,12.33
2022-10-12T19:48:42.550Z,12.80
2022-10-12T19:51:12.692Z,16.50
2022-10-12T19:53:56.456Z,13.97
2022-10-12T19:56:29.270Z,15.40
2022-10-12T19:58:58.152Z,13.37
2022-10-12T20:01:28.256Z,14.90
2022-10-12T20:03:55.751Z,11.00
2022-10-12T20:06:26.381Z,13.53
2022-10-12T20:08:55.180Z,11.67
2022-10-12T20:11:24.966Z,11.90
2022-10-12T20:13:53.183Z,12.30
2022-10-12T20:16:21.346Z,12.57
2022-10-12T20:18:49.683Z,13.37
2022-10-12T20:21:20.852Z,10.93
2022-10-12T20:23:49.514Z,11.73
2022-10-12T20:26:23.180Z,12.07
2022-10-12T20:28:54.777Z,13.97
2022-10-12T20:31:23.875Z,13.40
2022-10-12T20:33:52.747Z,11.87
2022-10-12T20:36:29.177Z,13.83
2022-10-12T20:39:00.338Z,13.70
2022-10-12T20:41:27.880Z,15.63
2022-10-12T20:43:57.456Z,13.43
2022-10-12T20:46:25.285Z,14.67
2022-10-12T20:48:58.759Z,17.70
2022-10-12T20:51:28.847Z,14.37
2022-10-12T20:54:01.080Z,13.63
2022-10-12T20:56:33.056Z,13.60
2022-10-12T20:59:01.133Z,18.97
2022-10-12T21:01:29.377Z,13.03
2022-10-12T21:03:57.472Z,14.40
2022-10-12T21:06:25.113Z,12.13
2022-10-12T21:08:54.758Z,13.27
2022-10-12T21:11:23.201Z,12.80
2022-10-12T21:13:51.005Z,12.57
2022-10-12T21:16:19.534Z,13.50
2022-10-12T21:18:47.037Z,11.40
2022-10-12T21:21:17.312Z,12.57
2022-10-12T21:23:51.897Z,11.80
2022-10-12T21:26:22.452Z,11.57
2022-10-12T21:28:50.819Z,11.87
2022-10-12T21:31:19.473Z,13.30
2022-10-12T21:33:47.301Z,15.33
2022-10-12T21:36:26.396Z,13.03
2022-10-12T21:38:54.514Z,14.00
2022-10-12T21:41:24.139Z,16.07
2022-10-12T21:43:52.519Z,17.23
2022-10-12T21:46:25.782Z,15.93
2022-10-12T21:48:54.562Z,13.03
2022-10-12T21:51:24.151Z,14.33
2022-10-12T21:53:52.546Z,18.47
2022-10-12T21:56:25.408Z,15.33
2022-10-12T21:58:54.142Z,13.97
2022-10-12T22:01:23.877Z,15.33
2022-10-12T22:03:56.035Z,14.37
2022-10-12T22:06:24.995Z,13.37
2022-10-12T22:09:01.300Z,14.13
2022-10-12T22:11:30.934Z,14.90
2022-10-12T22:14:06.075Z,12.93
2022-10-12T22:16:36.616Z,12.93
2022-10-12T22:19:06.802Z,17.33
2022-10-12T22:21:35.214Z,12.73
2022-10-12T22:24:02.707Z,13.57
2022-10-12T22:26:30.486Z,12.77
2022-10-12T22:29:00.464Z,13.33
2022-10-12T22:31:28.039Z,14.77
2022-10-12T22:33:56.825Z,13.50
2022-10-12T22:36:24.251Z,10.97
2022-10-12T22:38:51.629Z,12.37
2022-10-12T22:41:21.129Z,12.47
2022-10-12T22:43:54.150Z,15.60
2022-10-12T22:46:24.076Z,9.97
2022-10-12T22:48:52.704Z,10.80
2022-10-12T22:51:46.689Z,10.83
2022-10-12T22:54:14.163Z,9.50
2022-10-12T22:56:42.587Z,9.80
2022-10-12T22:59:15.284Z,11.23
2022-10-12T23:01:43.122Z,10.17
2022-10-12T23:04:11.012Z,10.67
2022-10-12T23:06:38.412Z,10.70
2022-10-12T23:09:05.771Z,10.33
2022-10-12T23:11:33.522Z,10.33
2022-10-12T23:14:00.962Z,11.20
2022-10-12T23:16:32.176Z,12.47
2022-10-12T23:19:02.807Z,10.77
2022-10-12T23:21:31.805Z,13.23
2022-10-12T23:24:00.377Z,16.17
2022-10-12T23:26:29.245Z,12.90
2022-10-12T23:28:57.231Z,13.77
2022-10-12T23:31:28.593Z,15.87
2022-10-12T23:34:01.372Z,13.00
2022-10-12T23:36:29.313Z,13.50
2022-10-12T23:38:58.979Z,13.80
2022-10-12T23:41:26.343Z,12.90
2022-10-12T23:43:53.761Z,12.43
2022-10-12T23:46:21.149Z,12.63
2022-10-12T23:48:48.648Z,11.90
2022-10-12T23:51:16.608Z,11.70
2022-10-12T23:53:44.647Z,11.00
2022-10-12T23:56:13.094Z,11.50
2022-10-12T23:58:40.779Z,10.93
